createdAt,value
2017-11-10T00:03:40.599Z,13.23
2017-11-10T00:08:45.013Z,12.90
2017-11-10T00:13:47.929Z,10.50
2017-11-10T00:18:50.888Z,12.20
2017-11-10T00:23:57.031Z,12.97
2017-11-10T00:28:59.958Z,12.70
2017-11-10T00:39:10.215Z,14.40
2017-11-10T00:49:23.077Z,13.10
2017-11-10T00:54:26.417Z,12.67
2017-11-10T00:59:31.459Z,14.03
2017-11-10T01:04:35.756Z,14.37
2017-11-10T01:09:38.785Z,14.60
2017-11-10T01:14:42.041Z,15.70
2017-11-10T01:19:46.302Z,14.20
2017-11-10T01:29:56.138Z,16.17
2017-11-10T01:34:59.605Z,15.17
2017-11-10T01:40:03.996Z,13.70
2017-11-10T01:45:08.301Z,14.47
2017-11-10T01:50:12.526Z,14.77
2017-11-10T01:55:15.349Z,14.40
2017-11-10T02:00:19.896Z,15.23
2017-11-10T02:05:23.244Z,14.73
2017-11-10T02:10:29.293Z,14.40
2017-11-10T02:15:32.703Z,15.20
2017-11-10T02:20:37.810Z,15.50
2017-11-10T02:25:41.261Z,15.00
2017-11-10T02:30:44.653Z,13.40
2017-11-10T02:35:47.590Z,14.57
2017-11-10T02:40:50.388Z,14.20
2017-11-10T02:45:54.758Z,15.23
2017-11-10T02:50:59.106Z,13.73
2017-11-10T02:56:04.234Z,13.80
2017-11-10T03:01:08.516Z,13.77
2017-11-10T03:06:11.333Z,13.13
2017-11-10T03:11:14.380Z,14.80
2017-11-10T03:21:24.714Z,15.70
2017-11-10T03:26:28.212Z,15.77
2017-11-10T03:31:32.355Z,17.13
2017-11-10T03:36:39.481Z,15.87
2017-11-10T03:41:45.589Z,15.60
2017-11-10T03:51:56.398Z,15.50
2017-11-10T03:56:59.796Z,15.23
2017-11-10T04:02:03.255Z,16.17
2017-11-10T04:07:07.614Z,15.03
2017-11-10T04:12:10.607Z,14.87
2017-11-10T04:17:16.634Z,15.50
2017-11-10T04:22:22.621Z,14.90
2017-11-10T04:27:25.977Z,13.30
2017-11-10T04:32:29.025Z,16.00
2017-11-10T04:37:34.135Z,15.10
2017-11-10T04:42:37.624Z,13.37
2017-11-10T04:47:41.965Z,13.27
2017-11-10T04:52:46.509Z,12.27
2017-11-10T04:57:50.930Z,14.27
2017-11-10T05:08:01.291Z,14.63
2017-11-10T05:13:04.834Z,12.60
2017-11-10T05:18:07.443Z,13.30
2017-11-10T05:23:10.031Z,12.23
2017-11-10T05:28:12.603Z,12.20
2017-11-10T05:33:15.160Z,11.07
2017-11-10T05:38:17.766Z,12.00
2017-11-10T05:43:20.347Z,11.17
2017-11-10T05:48:22.940Z,11.40
2017-11-10T05:53:25.514Z,11.63
2017-11-10T05:58:28.088Z,12.47
2017-11-10T06:03:31.478Z,12.13
2017-11-10T06:08:34.030Z,12.17
2017-11-10T06:13:36.596Z,11.10
2017-11-10T06:18:39.148Z,11.60
2017-11-10T06:23:41.717Z,11.37
2017-11-10T06:28:45.021Z,10.90
2017-11-10T06:39:16.552Z,10.27
2017-11-10T06:44:19.132Z,11.50
2017-11-10T06:49:22.444Z,10.80
2017-11-10T06:54:25.772Z,10.30
2017-11-10T06:59:28.387Z,11.07
2017-11-10T07:04:30.947Z,11.20
2017-11-10T07:09:33.498Z,10.60
2017-11-10T07:14:36.071Z,10.70
2017-11-10T07:19:39.390Z,11.83
2017-11-10T07:24:41.952Z,11.77
2017-11-10T07:29:44.526Z,12.20
2017-11-10T07:34:47.089Z,12.17
2017-11-10T07:39:49.647Z,12.00
2017-11-10T07:44:52.198Z,13.63
2017-11-10T07:49:54.756Z,13.87
2017-11-10T07:54:57.323Z,13.63
2017-11-10T07:59:59.890Z,12.77
2017-11-10T08:05:02.433Z,12.10
2017-11-10T08:10:05.007Z,11.13
2017-11-10T08:15:07.571Z,12.37
2017-11-10T08:20:10.132Z,12.00
2017-11-10T08:25:12.689Z,12.00
2017-11-10T08:30:15.253Z,13.17
2017-11-10T08:35:17.821Z,12.10
2017-11-10T08:40:20.385Z,12.50
2017-11-10T08:45:23.721Z,12.70
2017-11-10T08:50:26.352Z,12.03
2017-11-10T08:55:28.956Z,13.73
2017-11-10T09:00:31.521Z,11.93
2017-11-10T09:05:34.103Z,12.37
2017-11-10T09:10:37.439Z,12.30
2017-11-10T09:15:40.012Z,12.20
2017-11-10T09:20:43.339Z,11.80
2017-11-10T09:25:46.681Z,11.60
2017-11-10T09:31:01.067Z,13.63
2017-11-10T09:41:40.601Z,17.00
2017-11-10T09:46:49.508Z,10.87
2017-11-10T09:52:08.901Z,11.20
2017-11-10T09:57:16.109Z,12.23
2017-11-10T10:02:37.517Z,10.77
2017-11-10T10:07:45.564Z,11.40
2017-11-10T10:12:53.712Z,10.70
2017-11-10T10:17:58.083Z,11.27
2017-11-10T10:23:00.651Z,10.20
2017-11-10T10:28:04.647Z,11.47
2017-11-10T10:33:07.220Z,10.30
2017-11-10T10:38:09.774Z,10.63
2017-11-10T10:43:12.351Z,9.90
2017-11-10T10:48:14.906Z,9.93
2017-11-10T10:53:17.471Z,10.33
2017-11-10T10:58:20.028Z,9.47
2017-11-10T11:03:22.684Z,10.47
2017-11-10T11:08:26.017Z,9.90
2017-11-10T11:13:28.564Z,8.53
2017-11-10T11:18:31.163Z,10.17
2017-11-10T11:23:33.736Z,9.27
2017-11-10T11:28:36.324Z,8.87
2017-11-10T11:33:38.908Z,9.70
2017-11-10T11:38:42.258Z,9.50
2017-11-10T11:43:44.889Z,10.60
2017-11-10T11:48:47.456Z,8.30
2017-11-10T11:53:50.042Z,9.23
2017-11-10T11:58:52.604Z,9.67
2017-11-10T12:03:55.194Z,9.67
2017-11-10T12:08:57.758Z,9.00
2017-11-10T12:14:00.325Z,9.00
2017-11-10T12:19:03.691Z,8.80
2017-11-10T12:24:06.266Z,9.33
2017-11-10T12:29:08.831Z,9.50
2017-11-10T12:34:11.394Z,9.20
2017-11-10T12:39:13.980Z,10.90
2017-11-10T12:44:16.540Z,9.20
2017-11-10T12:49:19.106Z,8.63
2017-11-10T12:54:22.483Z,8.90
2017-11-10T12:59:25.365Z,8.83
2017-11-10T13:04:27.912Z,8.70
2017-11-10T13:09:30.703Z,8.90
2017-11-10T13:14:33.266Z,9.97
2017-11-10T13:19:35.842Z,9.80
2017-11-10T13:24:38.413Z,8.57
2017-11-10T13:29:40.965Z,7.80
2017-11-10T13:34:44.298Z,9.17
2017-11-10T13:39:46.861Z,9.13
2017-11-10T13:44:49.437Z,8.97
2017-11-10T13:49:52.009Z,9.20
2017-11-10T13:54:54.581Z,8.50
2017-11-10T13:59:57.157Z,8.97
2017-11-10T14:04:59.723Z,8.80
2017-11-10T14:10:02.292Z,8.50
2017-11-10T14:15:05.626Z,7.73
2017-11-10T14:20:08.184Z,7.33
2017-11-10T14:25:10.769Z,7.97
2017-11-10T14:30:13.315Z,6.47
2017-11-10T14:35:15.880Z,6.50
2017-11-10T14:40:18.452Z,6.40
2017-11-10T14:45:21.016Z,7.93
2017-11-10T14:50:24.347Z,8.00
2017-11-10T14:55:26.920Z,9.37
2017-11-10T15:00:30.249Z,8.37
2017-11-10T15:05:32.858Z,8.43
2017-11-10T15:10:35.567Z,9.43
2017-11-10T15:15:38.163Z,9.53
2017-11-10T15:20:40.724Z,9.87
2017-11-10T15:25:43.286Z,10.07
2017-11-10T15:30:45.847Z,10.40
2017-11-10T15:35:48.414Z,9.63
2017-11-10T15:40:51.223Z,10.10
2017-11-10T15:45:54.570Z,9.97
2017-11-10T15:50:57.899Z,10.27
2017-11-10T15:56:00.475Z,9.77
2017-11-10T16:01:03.026Z,9.67
2017-11-10T16:06:05.593Z,9.97
2017-11-10T16:11:08.171Z,10.87
2017-11-10T16:16:10.725Z,9.73
2017-11-10T16:26:17.611Z,10.37
2017-11-10T16:31:20.188Z,9.90
2017-11-10T16:36:22.772Z,12.50
2017-11-10T16:41:25.340Z,10.73
2017-11-10T16:46:27.936Z,14.77
2017-11-10T16:51:30.511Z,11.73
2017-11-10T16:56:33.071Z,11.30
2017-11-10T17:01:35.637Z,12.87
2017-11-10T17:06:38.216Z,10.80
2017-11-10T17:11:41.547Z,12.60
2017-11-10T17:16:44.106Z,10.67
2017-11-10T17:21:46.674Z,11.00
2017-11-10T17:26:49.251Z,9.20
2017-11-10T17:31:51.813Z,11.10
2017-11-10T17:36:54.378Z,9.93
2017-11-10T17:41:56.945Z,9.50
2017-11-10T17:47:01.064Z,10.53
2017-11-10T17:52:03.632Z,9.93
2017-11-10T17:57:06.202Z,8.57
2017-11-10T18:02:08.834Z,9.80
2017-11-10T18:07:11.423Z,8.57
2017-11-10T18:12:14.016Z,9.90
2017-11-10T18:17:16.609Z,8.30
2017-11-10T18:22:19.163Z,7.77
2017-11-10T18:27:21.700Z,8.27
2017-11-10T18:32:24.292Z,7.57
2017-11-10T18:37:27.293Z,7.47
2017-11-10T18:42:29.862Z,6.77
2017-11-10T18:47:32.526Z,6.37
2017-11-10T18:52:35.163Z,5.87
2017-11-10T18:57:37.781Z,7.10
2017-11-10T19:02:40.352Z,6.63
2017-11-10T19:07:43.800Z,6.37
2017-11-10T19:12:46.369Z,6.63
2017-11-10T19:22:55.985Z,7.77
2017-11-10T19:27:58.573Z,6.83
2017-11-10T19:33:01.134Z,8.20
2017-11-10T19:38:03.738Z,7.83
2017-11-10T19:43:06.337Z,6.73
2017-11-10T19:48:08.886Z,8.97
2017-11-10T19:53:11.497Z,7.13
2017-11-10T19:58:14.140Z,7.73
2017-11-10T20:03:16.728Z,9.00
2017-11-10T20:08:19.303Z,8.60
2017-11-10T20:13:21.899Z,8.40
2017-11-10T20:18:24.565Z,8.67
2017-11-10T20:23:27.630Z,8.20
2017-11-10T20:28:30.989Z,8.10
2017-11-10T20:33:33.620Z,8.50
2017-11-10T20:38:36.178Z,8.60
2017-11-10T20:43:38.735Z,8.70
2017-11-10T20:48:41.300Z,7.20
2017-11-10T20:53:44.008Z,7.00
2017-11-10T20:58:46.591Z,6.97
2017-11-10T21:03:49.178Z,8.80
2017-11-10T21:08:51.784Z,8.10
2017-11-10T21:13:54.405Z,8.83
2017-11-10T21:18:57.003Z,8.13
2017-11-10T21:23:59.559Z,8.60
2017-11-10T21:29:02.117Z,7.27
2017-11-10T21:34:04.687Z,9.10
2017-11-10T21:39:07.253Z,7.23
2017-11-10T21:44:09.818Z,9.67
2017-11-10T21:49:12.390Z,7.47
2017-11-10T21:54:14.932Z,7.97
2017-11-10T21:59:17.517Z,7.87
2017-11-10T22:04:20.072Z,7.27
2017-11-10T22:09:23.357Z,7.13
2017-11-10T22:14:25.933Z,7.03
2017-11-10T22:19:28.491Z,6.93
2017-11-10T22:24:31.021Z,8.27
2017-11-10T22:29:34.007Z,6.70
2017-11-10T22:34:36.566Z,6.57
2017-11-10T22:39:39.148Z,6.30
2017-11-10T22:44:41.745Z,6.40
2017-11-10T22:49:44.303Z,5.90
2017-11-10T22:54:46.889Z,6.70
2017-11-10T22:59:49.682Z,5.87
2017-11-10T23:04:52.302Z,6.40
2017-11-10T23:09:54.859Z,4.93
2017-11-10T23:14:57.417Z,5.30
2017-11-10T23:20:00.002Z,4.47
2017-11-10T23:25:02.579Z,3.87
2017-11-10T23:30:05.142Z,4.23
2017-11-10T23:35:07.700Z,4.07
2017-11-10T23:40:10.237Z,3.67
2017-11-10T23:45:12.804Z,3.80
2017-11-10T23:50:15.409Z,3.53
2017-11-10T23:55:17.986Z,3.80
